F.r. Bigelow — WDB8153 — position and weather

sailwx.info

Track history (hours):
 
Tides and Currents Weather Stations Pressure Air Temp Water Temp Dewpoint Dewpoint Depression Visibility Wind Speed Wind Dir Waves Ship Positions

F.r. Bigelow

Owner: INGRAM BARGE COMPANY, Nashville, TN. More information available from US FCC via Universal Licensing System and Coast Guard Vessel Documentation Center.

Last reported at 2015-Jul-29 15:04 UTC. Time now 2015-Jul-29 17:59 UTC.
Position N 29°56' W 089°58'.

Length 46 m; draft 2.7 m.

Type: Tow > 200 m length. MMSI: 366953890.

Date/timePositionNaut miles runAvg speedWind from/ knotsBaromVisibWave heightAir tempDewpointWater temp
2015-Jul-29 15:04N 29°56' W 089°58'5 8.8
2015-Jul-29 14:33N 29°57' W 090°03'1 0.9
2015-Jul-29 13:26N 29°56' W 090°03'3 3.0
2015-Jul-29 12:32N 29°55' W 090°06'18 4.5
2015-Jul-29 08:32N 29°60' W 090°25'  
2015-Jul-26 14:06N 29°55' W 090°07'4 1.3
2015-Jul-26 11:19N 29°57' W 090°03'0 0.0
2015-Jul-26 10:10N 29°57' W 090°03'2 0.9
2015-Jul-26 08:08N 29°57' W 090°01'2 2.1
2015-Jul-26 07:22N 29°56' W 089°59'0 0.0
2015-Jul-26 06:30N 29°56' W 089°59'0 0.1
2015-Jul-26 05:24N 29°56' W 089°59'0 0.0
2015-Jul-26 04:29N 29°56' W 089°59'0 0.0
2015-Jul-26 00:10N 29°56' W 089°59'0 0.0
2015-Jul-25 23:32N 29°56' W 089°59'4 3.8
2015-Jul-25 22:32N 29°57' W 090°03'1 0.7
2015-Jul-25 21:29N 29°57' W 090°03'4 4.3
2015-Jul-25 20:32N 29°55' W 090°07'  
Track history (hours):
 
Tides and Currents Weather Stations Pressure Air Temp Water Temp Dewpoint Dewpoint Depression Visibility Wind Speed Wind Dir Waves Ship Positions

F.r. Bigelow

Owner: INGRAM BARGE COMPANY, Nashville, TN. More information available from US FCC via Universal Licensing System and Coast Guard Vessel Documentation Center.

Last reported at 2015-Jul-29 15:04 UTC. Time now 2015-Jul-29 17:59 UTC.
Position N 29°56' W 089°58'.

Length 46 m; draft 2.7 m.

Type: Tow > 200 m length. MMSI: 366953890.

Date/timePositionNaut miles runAvg speedWind from/ knotsBaromVisibWave heightAir tempDewpointWater temp
2015-Jul-29 15:04N 29°56' W 089°58'5 8.8
2015-Jul-29 14:33N 29°57' W 090°03'1 0.9
2015-Jul-29 13:26N 29°56' W 090°03'3 3.0
2015-Jul-29 12:32N 29°55' W 090°06'18 4.5
2015-Jul-29 08:32N 29°60' W 090°25'  
2015-Jul-26 14:06N 29°55' W 090°07'4 1.3
2015-Jul-26 11:19N 29°57' W 090°03'0 0.0
2015-Jul-26 10:10N 29°57' W 090°03'2 0.9
2015-Jul-26 08:08N 29°57' W 090°01'2 2.1
2015-Jul-26 07:22N 29°56' W 089°59'0 0.0
2015-Jul-26 06:30N 29°56' W 089°59'0 0.1
2015-Jul-26 05:24N 29°56' W 089°59'0 0.0
2015-Jul-26 04:29N 29°56' W 089°59'0 0.0
2015-Jul-26 00:10N 29°56' W 089°59'0 0.0
2015-Jul-25 23:32N 29°56' W 089°59'4 3.8
2015-Jul-25 22:32N 29°57' W 090°03'1 0.7
2015-Jul-25 21:29N 29°57' W 090°03'4 4.3
2015-Jul-25 20:32N 29°55' W 090°07'  

Dump ship's entire track history